Palestine, TX (75801)

12:31 AM CST on February 08, 2016 (GMT -0600)
North Palestine | | Change Station
CLOSE
Current Station
Personal Weather Station
Location: Palestine, TX
Elevation: 581 ft
Nearby Weather Stations
Active Advisory: Wind Advisory

Elev 581 ft 31.84 °N, 95.65 °W | Updated 1 minute ago

Clear
Clear
54.0 °F
Feels Like 54.0 °F
N
0.0
Wind Variable Wind from North
Gusts 1.0 mph

Today
High -- | Low -- °F
--% Chance of Precip.
Yesterday
High -- | Low -- °F
Precip. -- in
Pressure 30.21 in
Visibility 10.0 miles
Clouds Clear
Dew Point 37 °F
Humidity 53%
Rainfall 0.00 in
Snow Depth Not available.
7:10 AM 6:02 PM
Waning Crescent, 0% visible
METAR KPSN 080615Z AUTO 32003KT 10SM CLR 07/02 A3021 RMK AO2 T00700021
Pressure 30.21 in
Visibility 10.0 miles
Clouds Clear
Dew Point 37 °F
Humidity 53%
Rainfall 0.00 in
Snow Depth Not available.
7:10 AM 6:02 PM
Waning Crescent, 0% visible
METAR KPSN 080615Z AUTO 32003KT 10SM CLR 07/02 A3021 RMK AO2 T00700021

10-Day Weather Forecast

Almanac

Astronomy

Feb. 08, 2016 Rise Set
Actual Time
Civil Twilight
Nautical Twilight
Astronomical Twilight
Moon
Length of Visible Light
Length of Day
Tomorrow will be .
, % of the Moon is Illuminated

Today's Extremes

State Highs State Lows

Community

WunderPhotos

Upload Photos

1,891,395 photos uploaded!

WunderBlog® & News

Nearby

Air Quality

  Air Quality AQ Index Pollutant
Not available.

Snow Depth

Station Depth Elevation

Earthquake Activity

City Distance Mag. Time & Date
Minimum magnitude displayed is 2.5.

Coastal Water Temperatures

Place Temperature

Stations

Nearby Weather Stations

Station Location Temp. Windchill Dew Point Humidity Wind Precip. Elev Updated Type
                   

Watches & Warnings

Wind Advisory
Issued: 10:42 PM CST Feb. 7, 2016 – National Weather Service

... Wind Advisory remains in effect from 9 am to 6 PM CST Monday...

* timing... 9 am CST to 6 PM CST Monday.

* Winds... northwest winds of 20 to 30 mph with some gusts over
35 mph.

* Impacts... driving... especially of high profile vehicles... may
become difficult at times. Residents should ensure lightweight
outdoor objects are secured.

Precautionary/preparedness actions...

A Wind Advisory means that sustained winds of at least 20 to
30 mph are expected. Winds this strong can make driving
difficult... especially for high profile vehicles. Boaters should
use extra caution when venturing onto area lakes. Residents may
wish to take action to secure trash cans... lawn furniture... and
other lightweight outdoor objects that may be blown around in the
strong winds.